sensor_id;sensor_type;location;lat;lon;timestamp;temperature;humidity
73777;DHT22;62088;50.240;2.696;2022-07-12T00:01:57;20.00;65.00
73777;DHT22;62088;50.240;2.696;2022-07-12T00:04:24;20.00;65.20
73777;DHT22;62088;50.240;2.696;2022-07-12T00:06:52;19.90;65.40
73777;DHT22;62088;50.240;2.696;2022-07-12T00:09:19;19.90;65.50
73777;DHT22;62088;50.240;2.696;2022-07-12T00:11:46;19.90;65.60
73777;DHT22;62088;50.240;2.696;2022-07-12T00:14:14;19.90;65.60
73777;DHT22;62088;50.240;2.696;2022-07-12T00:16:41;19.80;65.80
73777;DHT22;62088;50.240;2.696;2022-07-12T00:19:09;19.80;65.80
73777;DHT22;62088;50.240;2.696;2022-07-12T00:21:36;19.80;65.80
73777;DHT22;62088;50.240;2.696;2022-07-12T00:24:03;19.70;65.90
73777;DHT22;62088;50.240;2.696;2022-07-12T00:26:30;19.80;66.00
73777;DHT22;62088;50.240;2.696;2022-07-12T00:28:57;19.70;65.90
73777;DHT22;62088;50.240;2.696;2022-07-12T00:31:25;19.70;65.90
73777;DHT22;62088;50.240;2.696;2022-07-12T00:33:52;19.60;65.90
73777;DHT22;62088;50.240;2.696;2022-07-12T00:36:20;19.60;65.90
73777;DHT22;62088;50.240;2.696;2022-07-12T00:38:47;19.60;66.00
73777;DHT22;62088;50.240;2.696;2022-07-12T00:41:14;19.60;66.10
73777;DHT22;62088;50.240;2.696;2022-07-12T00:43:41;19.50;66.00
73777;DHT22;62088;50.240;2.696;2022-07-12T00:46:09;19.50;65.90
73777;DHT22;62088;50.240;2.696;2022-07-12T00:48:36;19.50;66.10
73777;DHT22;62088;50.240;2.696;2022-07-12T00:51:04;19.40;66.20
73777;DHT22;62088;50.240;2.696;2022-07-12T00:53:31;19.40;66.30
73777;DHT22;62088;50.240;2.696;2022-07-12T00:55:59;19.40;66.50
73777;DHT22;62088;50.240;2.696;2022-07-12T00:58:27;19.40;66.60
73777;DHT22;62088;50.240;2.696;2022-07-12T01:00:56;19.30;66.60
73777;DHT22;62088;50.240;2.696;2022-07-12T01:03:24;19.30;66.70
73777;DHT22;62088;50.240;2.696;2022-07-12T01:05:52;19.30;66.70
73777;DHT22;62088;50.240;2.696;2022-07-12T01:08:19;19.20;66.70
73777;DHT22;62088;50.240;2.696;2022-07-12T01:10:48;19.20;66.70
73777;DHT22;62088;50.240;2.696;2022-07-12T01:13:17;19.20;66.70
73777;DHT22;62088;50.240;2.696;2022-07-12T01:15:47;19.10;66.70
73777;DHT22;62088;50.240;2.696;2022-07-12T01:18:15;19.20;66.80
73777;DHT22;62088;50.240;2.696;2022-07-12T01:20:44;19.10;66.90
73777;DHT22;62088;50.240;2.696;2022-07-12T01:23:15;19.10;67.00
73777;DHT22;62088;50.240;2.696;2022-07-12T01:25:42;19.10;67.00
73777;DHT22;62088;50.240;2.696;2022-07-12T01:28:10;19.10;67.10
73777;DHT22;62088;50.240;2.696;2022-07-12T01:30:37;19.10;67.00
73777;DHT22;62088;50.240;2.696;2022-07-12T01:33:04;19.00;66.90
73777;DHT22;62088;50.240;2.696;2022-07-12T01:35:32;19.00;66.90
73777;DHT22;62088;50.240;2.696;2022-07-12T01:37:59;18.90;66.80
73777;DHT22;62088;50.240;2.696;2022-07-12T01:40:26;18.90;66.90
73777;DHT22;62088;50.240;2.696;2022-07-12T01:42:54;18.90;66.90
73777;DHT22;62088;50.240;2.696;2022-07-12T01:45:22;18.90;67.00
73777;DHT22;62088;50.240;2.696;2022-07-12T01:47:49;18.90;67.00
73777;DHT22;62088;50.240;2.696;2022-07-12T01:50:16;18.80;67.00
73777;DHT22;62088;50.240;2.696;2022-07-12T01:52:44;18.80;66.90
73777;DHT22;62088;50.240;2.696;2022-07-12T01:55:12;18.70;66.80
73777;DHT22;62088;50.240;2.696;2022-07-12T01:57:42;18.70;66.80
73777;DHT22;62088;50.240;2.696;2022-07-12T02:00:11;18.70;66.80
73777;DHT22;62088;50.240;2.696;2022-07-12T02:02:39;18.60;66.90
73777;DHT22;62088;50.240;2.696;2022-07-12T02:05:06;18.60;67.00
73777;DHT22;62088;50.240;2.696;2022-07-12T02:07:34;18.60;67.20
73777;DHT22;62088;50.240;2.696;2022-07-12T02:10:05;18.60;67.30
73777;DHT22;62088;50.240;2.696;2022-07-12T02:12:34;18.50;67.30
73777;DHT22;62088;50.240;2.696;2022-07-12T02:15:01;18.50;67.30
73777;DHT22;62088;50.240;2.696;2022-07-12T02:17:28;18.40;67.40
73777;DHT22;62088;50.240;2.696;2022-07-12T02:19:55;18.40;67.40
73777;DHT22;62088;50.240;2.696;2022-07-12T02:22:22;18.40;67.40
73777;DHT22;62088;50.240;2.696;2022-07-12T02:24:49;18.40;67.40
73777;DHT22;62088;50.240;2.696;2022-07-12T02:27:17;18.40;67.40
73777;DHT22;62088;50.240;2.696;2022-07-12T02:29:44;18.30;67.50
73777;DHT22;62088;50.240;2.696;2022-07-12T02:32:11;18.30;67.40
73777;DHT22;62088;50.240;2.696;2022-07-12T02:34:38;18.30;67.40
73777;DHT22;62088;50.240;2.696;2022-07-12T02:37:05;18.20;67.50
73777;DHT22;62088;50.240;2.696;2022-07-12T02:39:32;18.20;67.70
73777;DHT22;62088;50.240;2.696;2022-07-12T02:41:59;18.20;67.80
73777;DHT22;62088;50.240;2.696;2022-07-12T02:44:26;18.20;67.80
73777;DHT22;62088;50.240;2.696;2022-07-12T02:46:53;18.10;67.80
73777;DHT22;62088;50.240;2.696;2022-07-12T02:49:20;18.10;67.80
73777;DHT22;62088;50.240;2.696;2022-07-12T02:51:47;18.10;67.80
73777;DHT22;62088;50.240;2.696;2022-07-12T02:54:14;18.10;67.90
73777;DHT22;62088;50.240;2.696;2022-07-12T02:56:41;18.00;68.00
73777;DHT22;62088;50.240;2.696;2022-07-12T02:59:08;18.00;68.00
73777;DHT22;62088;50.240;2.696;2022-07-12T03:01:35;18.00;68.00
73777;DHT22;62088;50.240;2.696;2022-07-12T03:04:02;17.90;68.00
73777;DHT22;62088;50.240;2.696;2022-07-12T03:06:29;17.90;68.00
73777;DHT22;62088;50.240;2.696;2022-07-12T03:08:56;17.90;68.10
73777;DHT22;62088;50.240;2.696;2022-07-12T03:11:23;17.90;68.10
73777;DHT22;62088;50.240;2.696;2022-07-12T03:13:50;17.90;68.00
73777;DHT22;62088;50.240;2.696;2022-07-12T03:16:17;17.90;68.00
73777;DHT22;62088;50.240;2.696;2022-07-12T03:18:44;17.80;68.00
73777;DHT22;62088;50.240;2.696;2022-07-12T03:21:11;17.80;68.00
73777;DHT22;62088;50.240;2.696;2022-07-12T03:23:38;17.80;68.10
73777;DHT22;62088;50.240;2.696;2022-07-12T03:26:07;17.70;68.10
73777;DHT22;62088;50.240;2.696;2022-07-12T03:28:34;17.70;68.10
73777;DHT22;62088;50.240;2.696;2022-07-12T03:31:01;17.70;68.10
73777;DHT22;62088;50.240;2.696;2022-07-12T03:33:28;17.60;68.10
73777;DHT22;62088;50.240;2.696;2022-07-12T03:35:59;17.60;68.10
73777;DHT22;62088;50.240;2.696;2022-07-12T03:38:27;17.60;68.20
73777;DHT22;62088;50.240;2.696;2022-07-12T03:40:54;17.50;68.20
73777;DHT22;62088;50.240;2.696;2022-07-12T03:43:21;17.50;68.10
73777;DHT22;62088;50.240;2.696;2022-07-12T03:45:48;17.40;68.00
73777;DHT22;62088;50.240;2.696;2022-07-12T03:48:15;17.40;68.00
73777;DHT22;62088;50.240;2.696;2022-07-12T03:50:42;17.40;68.00
73777;DHT22;62088;50.240;2.696;2022-07-12T03:53:09;17.40;68.00
73777;DHT22;62088;50.240;2.696;2022-07-12T03:55:36;17.40;68.00
73777;DHT22;62088;50.240;2.696;2022-07-12T03:58:03;17.30;68.00
73777;DHT22;62088;50.240;2.696;2022-07-12T04:00:30;17.20;68.00
73777;DHT22;62088;50.240;2.696;2022-07-12T04:02:57;17.20;67.90
73777;DHT22;62088;50.240;2.696;2022-07-12T04:05:24;17.20;67.90
73777;DHT22;62088;50.240;2.696;2022-07-12T04:07:54;17.20;68.00
73777;DHT22;62088;50.240;2.696;2022-07-12T04:10:21;17.10;68.20
73777;DHT22;62088;50.240;2.696;2022-07-12T04:12:49;17.10;68.30
73777;DHT22;62088;50.240;2.696;2022-07-12T04:15:17;17.10;68.50
73777;DHT22;62088;50.240;2.696;2022-07-12T04:17:44;17.00;68.50
73777;DHT22;62088;50.240;2.696;2022-07-12T04:20:11;17.00;68.60
73777;DHT22;62088;50.240;2.696;2022-07-12T04:22:39;17.00;68.60
73777;DHT22;62088;50.240;2.696;2022-07-12T04:25:07;16.90;68.70
73777;DHT22;62088;50.240;2.696;2022-07-12T04:27:34;16.90;68.70
73777;DHT22;62088;50.240;2.696;2022-07-12T04:30:01;16.90;68.90
73777;DHT22;62088;50.240;2.696;2022-07-12T04:32:29;16.90;69.00
73777;DHT22;62088;50.240;2.696;2022-07-12T04:34:57;16.90;69.10
73777;DHT22;62088;50.240;2.696;2022-07-12T04:37:24;16.90;69.10
73777;DHT22;62088;50.240;2.696;2022-07-12T04:39:51;16.90;69.10
73777;DHT22;62088;50.240;2.696;2022-07-12T04:42:18;16.80;69.10
73777;DHT22;62088;50.240;2.696;2022-07-12T04:44:45;16.80;69.10
73777;DHT22;62088;50.240;2.696;2022-07-12T04:47:12;16.80;69.10
73777;DHT22;62088;50.240;2.696;2022-07-12T04:49:39;16.80;69.20
73777;DHT22;62088;50.240;2.696;2022-07-12T04:52:06;16.80;69.30
73777;DHT22;62088;50.240;2.696;2022-07-12T04:54:33;16.80;69.40
73777;DHT22;62088;50.240;2.696;2022-07-12T04:57:00;16.70;69.50
73777;DHT22;62088;50.240;2.696;2022-07-12T04:59:27;16.70;69.70
73777;DHT22;62088;50.240;2.696;2022-07-12T05:01:54;16.80;69.90
73777;DHT22;62088;50.240;2.696;2022-07-12T05:04:21;16.70;70.10
73777;DHT22;62088;50.240;2.696;2022-07-12T05:06:48;16.80;70.20
73777;DHT22;62088;50.240;2.696;2022-07-12T05:09:16;16.80;70.30
73777;DHT22;62088;50.240;2.696;2022-07-12T05:11:43;16.80;70.40
73777;DHT22;62088;50.240;2.696;2022-07-12T05:14:10;16.80;70.40
73777;DHT22;62088;50.240;2.696;2022-07-12T05:16:37;16.80;70.40
73777;DHT22;62088;50.240;2.696;2022-07-12T05:19:04;16.80;70.40
73777;DHT22;62088;50.240;2.696;2022-07-12T05:21:31;16.80;70.30
73777;DHT22;62088;50.240;2.696;2022-07-12T05:24:02;16.80;70.30
73777;DHT22;62088;50.240;2.696;2022-07-12T05:26:29;16.90;70.30
73777;DHT22;62088;50.240;2.696;2022-07-12T05:28:56;16.80;70.20
73777;DHT22;62088;50.240;2.696;2022-07-12T05:31:23;16.80;70.20
73777;DHT22;62088;50.240;2.696;2022-07-12T05:33:51;16.80;70.20
73777;DHT22;62088;50.240;2.696;2022-07-12T05:36:18;16.80;70.20
73777;DHT22;62088;50.240;2.696;2022-07-12T05:38:46;16.80;70.20
73777;DHT22;62088;50.240;2.696;2022-07-12T05:41:13;16.80;70.30
73777;DHT22;62088;50.240;2.696;2022-07-12T05:43:40;16.80;70.30
73777;DHT22;62088;50.240;2.696;2022-07-12T05:46:07;16.80;70.40
73777;DHT22;62088;50.240;2.696;2022-07-12T05:48:37;16.80;70.50
73777;DHT22;62088;50.240;2.696;2022-07-12T05:51:04;16.80;70.50
73777;DHT22;62088;50.240;2.696;2022-07-12T05:53:49;16.80;70.60
73777;DHT22;62088;50.240;2.696;2022-07-12T05:56:16;16.80;70.80
73777;DHT22;62088;50.240;2.696;2022-07-12T05:58:43;16.80;70.90
73777;DHT22;62088;50.240;2.696;2022-07-12T06:01:10;16.80;71.10
73777;DHT22;62088;50.240;2.696;2022-07-12T06:03:37;16.90;71.40
73777;DHT22;62088;50.240;2.696;2022-07-12T06:06:04;16.90;71.70
73777;DHT22;62088;50.240;2.696;2022-07-12T06:08:31;16.90;72.10
73777;DHT22;62088;50.240;2.696;2022-07-12T06:10:58;17.00;72.50
73777;DHT22;62088;50.240;2.696;2022-07-12T06:13:25;17.10;72.70
73777;DHT22;62088;50.240;2.696;2022-07-12T06:15:52;17.20;73.00
73777;DHT22;62088;50.240;2.696;2022-07-12T06:18:19;17.30;73.50
73777;DHT22;62088;50.240;2.696;2022-07-12T06:20:46;17.40;73.70
73777;DHT22;62088;50.240;2.696;2022-07-12T06:23:13;17.40;73.90
73777;DHT22;62088;50.240;2.696;2022-07-12T06:25:40;17.50;74.20
73777;DHT22;62088;50.240;2.696;2022-07-12T06:28:09;17.50;74.40
73777;DHT22;62088;50.240;2.696;2022-07-12T06:30:37;17.60;74.60
73777;DHT22;62088;50.240;2.696;2022-07-12T06:33:04;17.70;75.00
73777;DHT22;62088;50.240;2.696;2022-07-12T06:35:31;17.90;75.20
73777;DHT22;62088;50.240;2.696;2022-07-12T06:38:00;17.90;75.20
73777;DHT22;62088;50.240;2.696;2022-07-12T06:40:28;18.00;75.30
73777;DHT22;62088;50.240;2.696;2022-07-12T06:42:55;18.10;75.60
73777;DHT22;62088;50.240;2.696;2022-07-12T06:45:22;18.20;75.40
73777;DHT22;62088;50.240;2.696;2022-07-12T06:47:51;18.30;75.30
73777;DHT22;62088;50.240;2.696;2022-07-12T06:50:18;18.40;75.50
73777;DHT22;62088;50.240;2.696;2022-07-12T06:52:45;18.50;75.60
73777;DHT22;62088;50.240;2.696;2022-07-12T06:55:12;18.60;75.50
73777;DHT22;62088;50.240;2.696;2022-07-12T06:57:39;18.70;75.40
73777;DHT22;62088;50.240;2.696;2022-07-12T07:00:07;18.80;75.40
73777;DHT22;62088;50.240;2.696;2022-07-12T07:02:34;18.90;75.60
73777;DHT22;62088;50.240;2.696;2022-07-12T07:05:01;19.00;75.70
73777;DHT22;62088;50.240;2.696;2022-07-12T07:07:28;19.10;75.80
73777;DHT22;62088;50.240;2.696;2022-07-12T07:09:55;19.30;75.90
73777;DHT22;62088;50.240;2.696;2022-07-12T07:12:22;19.40;75.70
73777;DHT22;62088;50.240;2.696;2022-07-12T07:14:49;19.50;75.50
73777;DHT22;62088;50.240;2.696;2022-07-12T07:17:16;19.70;75.50
73777;DHT22;62088;50.240;2.696;2022-07-12T07:19:44;19.80;75.30
73777;DHT22;62088;50.240;2.696;2022-07-12T07:22:12;19.90;75.10
73777;DHT22;62088;50.240;2.696;2022-07-12T07:24:40;20.10;74.80
73777;DHT22;62088;50.240;2.696;2022-07-12T07:27:07;20.20;74.50
73777;DHT22;62088;50.240;2.696;2022-07-12T07:29:35;20.40;74.30
73777;DHT22;62088;50.240;2.696;2022-07-12T07:32:20;20.40;74.10
73777;DHT22;62088;50.240;2.696;2022-07-12T07:34:47;20.60;74.00
73777;DHT22;62088;50.240;2.696;2022-07-12T07:37:15;20.70;73.80
73777;DHT22;62088;50.240;2.696;2022-07-12T07:39:42;20.80;73.60
73777;DHT22;62088;50.240;2.696;2022-07-12T07:42:09;21.00;73.40
73777;DHT22;62088;50.240;2.696;2022-07-12T07:44:36;21.20;73.00
73777;DHT22;62088;50.240;2.696;2022-07-12T07:47:23;21.30;72.40
73777;DHT22;62088;50.240;2.696;2022-07-12T07:49:54;21.40;72.00
73777;DHT22;62088;50.240;2.696;2022-07-12T07:52:21;21.60;71.80
73777;DHT22;62088;50.240;2.696;2022-07-12T07:54:49;21.70;71.20
73777;DHT22;62088;50.240;2.696;2022-07-12T07:57:16;21.80;70.60
73777;DHT22;62088;50.240;2.696;2022-07-12T07:59:43;21.90;70.30
73777;DHT22;62088;50.240;2.696;2022-07-12T08:02:11;22.00;69.80
73777;DHT22;62088;50.240;2.696;2022-07-12T08:04:39;22.20;69.50
73777;DHT22;62088;50.240;2.696;2022-07-12T08:07:06;22.40;68.80
73777;DHT22;62088;50.240;2.696;2022-07-12T08:09:33;22.40;68.40
73777;DHT22;62088;50.240;2.696;2022-07-12T08:12:00;22.60;67.90
73777;DHT22;62088;50.240;2.696;2022-07-12T08:14:27;22.60;67.60
73777;DHT22;62088;50.240;2.696;2022-07-12T08:16:54;22.80;67.40
73777;DHT22;62088;50.240;2.696;2022-07-12T08:19:21;22.90;67.10
73777;DHT22;62088;50.240;2.696;2022-07-12T08:21:48;23.00;66.80
73777;DHT22;62088;50.240;2.696;2022-07-12T08:24:15;23.10;66.50
73777;DHT22;62088;50.240;2.696;2022-07-12T08:26:42;23.30;66.10
73777;DHT22;62088;50.240;2.696;2022-07-12T08:29:09;23.30;65.10
73777;DHT22;62088;50.240;2.696;2022-07-12T08:31:36;23.40;64.60
73777;DHT22;62088;50.240;2.696;2022-07-12T08:34:03;23.40;64.00
73777;DHT22;62088;50.240;2.696;2022-07-12T08:36:31;23.50;63.80
73777;DHT22;62088;50.240;2.696;2022-07-12T08:39:00;23.60;63.80
73777;DHT22;62088;50.240;2.696;2022-07-12T08:41:27;23.70;63.50
73777;DHT22;62088;50.240;2.696;2022-07-12T08:43:54;23.80;62.70
73777;DHT22;62088;50.240;2.696;2022-07-12T08:46:22;23.90;62.10
73777;DHT22;62088;50.240;2.696;2022-07-12T08:48:49;24.00;61.40
73777;DHT22;62088;50.240;2.696;2022-07-12T08:51:20;24.10;61.20
73777;DHT22;62088;50.240;2.696;2022-07-12T08:53:47;24.30;60.60
73777;DHT22;62088;50.240;2.696;2022-07-12T08:56:32;24.40;59.80
73777;DHT22;62088;50.240;2.696;2022-07-12T08:59:20;24.50;59.60
73777;DHT22;62088;50.240;2.696;2022-07-12T09:01:49;24.70;60.00
73777;DHT22;62088;50.240;2.696;2022-07-12T09:04:22;24.90;60.00
73777;DHT22;62088;50.240;2.696;2022-07-12T09:06:51;25.10;59.60
73777;DHT22;62088;50.240;2.696;2022-07-12T09:09:40;25.30;58.90
73777;DHT22;62088;50.240;2.696;2022-07-12T09:12:07;25.40;57.60
73777;DHT22;62088;50.240;2.696;2022-07-12T09:14:52;25.60;56.60
73777;DHT22;62088;50.240;2.696;2022-07-12T09:17:22;25.80;56.10
73777;DHT22;62088;50.240;2.696;2022-07-12T09:19:55;25.90;55.80
73777;DHT22;62088;50.240;2.696;2022-07-12T09:22:22;26.10;55.40
73777;DHT22;62088;50.240;2.696;2022-07-12T09:24:49;26.20;55.00
73777;DHT22;62088;50.240;2.696;2022-07-12T09:27:23;26.30;54.60
73777;DHT22;62088;50.240;2.696;2022-07-12T09:29:51;26.40;54.60
73777;DHT22;62088;50.240;2.696;2022-07-12T09:32:25;26.60;54.30
73777;DHT22;62088;50.240;2.696;2022-07-12T09:35:10;26.60;53.30
73777;DHT22;62088;50.240;2.696;2022-07-12T09:38:07;26.80;53.20
73777;DHT22;62088;50.240;2.696;2022-07-12T09:40:34;26.90;52.60
73777;DHT22;62088;50.240;2.696;2022-07-12T09:43:03;27.00;52.40
73777;DHT22;62088;50.240;2.696;2022-07-12T09:45:32;27.10;52.00
73777;DHT22;62088;50.240;2.696;2022-07-12T09:47:59;27.20;51.50
73777;DHT22;62088;50.240;2.696;2022-07-12T09:50:29;27.30;51.60
73777;DHT22;62088;50.240;2.696;2022-07-12T09:52:58;27.40;51.70
73777;DHT22;62088;50.240;2.696;2022-07-12T09:55:29;27.40;51.60
73777;DHT22;62088;50.240;2.696;2022-07-12T09:58:01;27.60;51.30
73777;DHT22;62088;50.240;2.696;2022-07-12T10:00:28;27.80;51.10
73777;DHT22;62088;50.240;2.696;2022-07-12T10:02:58;27.90;51.00
73777;DHT22;62088;50.240;2.696;2022-07-12T10:05:26;27.90;50.50
73777;DHT22;62088;50.240;2.696;2022-07-12T10:07:54;28.00;49.80
73777;DHT22;62088;50.240;2.696;2022-07-12T10:10:22;28.10;49.20
73777;DHT22;62088;50.240;2.696;2022-07-12T10:12:51;28.20;48.90
73777;DHT22;62088;50.240;2.696;2022-07-12T10:15:21;28.30;48.40
73777;DHT22;62088;50.240;2.696;2022-07-12T10:17:54;28.30;48.00
73777;DHT22;62088;50.240;2.696;2022-07-12T10:20:24;28.40;47.60
73777;DHT22;62088;50.240;2.696;2022-07-12T10:22:54;28.40;47.30
73777;DHT22;62088;50.240;2.696;2022-07-12T10:25:32;28.60;46.70
73777;DHT22;62088;50.240;2.696;2022-07-12T10:28:03;28.80;46.30
73777;DHT22;62088;50.240;2.696;2022-07-12T10:30:30;28.80;46.10
73777;DHT22;62088;50.240;2.696;2022-07-12T10:32:59;28.90;46.10
73777;DHT22;62088;50.240;2.696;2022-07-12T10:35:29;29.10;45.70
73777;DHT22;62088;50.240;2.696;2022-07-12T10:40:40;29.20;44.90
73777;DHT22;62088;50.240;2.696;2022-07-12T10:45:39;29.40;43.20
73777;DHT22;62088;50.240;2.696;2022-07-12T10:53:34;29.60;42.60
73777;DHT22;62088;50.240;2.696;2022-07-12T10:58:37;29.90;43.10
73777;DHT22;62088;50.240;2.696;2022-07-12T11:01:06;30.00;42.00
73777;DHT22;62088;50.240;2.696;2022-07-12T11:04:09;30.10;41.50
73777;DHT22;62088;50.240;2.696;2022-07-12T11:06:41;30.10;41.80
73777;DHT22;62088;50.240;2.696;2022-07-12T11:09:13;30.20;41.70
73777;DHT22;62088;50.240;2.696;2022-07-12T11:11:44;30.40;41.50
73777;DHT22;62088;50.240;2.696;2022-07-12T11:14:29;30.50;41.00
73777;DHT22;62088;50.240;2.696;2022-07-12T11:16:57;30.60;40.30
73777;DHT22;62088;50.240;2.696;2022-07-12T11:19:26;30.70;39.50
73777;DHT22;62088;50.240;2.696;2022-07-12T11:21:55;30.80;39.40
73777;DHT22;62088;50.240;2.696;2022-07-12T11:24:24;30.80;40.10
73777;DHT22;62088;50.240;2.696;2022-07-12T11:26:52;30.90;40.50
73777;DHT22;62088;50.240;2.696;2022-07-12T11:29:20;30.90;40.50
73777;DHT22;62088;50.240;2.696;2022-07-12T11:31:47;31.10;40.30
73777;DHT22;62088;50.240;2.696;2022-07-12T11:34:26;31.20;40.10
73777;DHT22;62088;50.240;2.696;2022-07-12T11:36:54;31.30;39.70
73777;DHT22;62088;50.240;2.696;2022-07-12T11:42:02;31.40;39.20
73777;DHT22;62088;50.240;2.696;2022-07-12T11:44:44;31.50;38.40
73777;DHT22;62088;50.240;2.696;2022-07-12T11:47:13;31.60;38.20
73777;DHT22;62088;50.240;2.696;2022-07-12T11:49:50;31.70;37.60
73777;DHT22;62088;50.240;2.696;2022-07-12T11:52:22;31.80;37.40
73777;DHT22;62088;50.240;2.696;2022-07-12T11:54:51;31.80;37.00
73777;DHT22;62088;50.240;2.696;2022-07-12T11:57:22;31.90;36.90
73777;DHT22;62088;50.240;2.696;2022-07-12T11:59:52;32.00;36.70
73777;DHT22;62088;50.240;2.696;2022-07-12T12:02:19;32.00;36.50
73777;DHT22;62088;50.240;2.696;2022-07-12T12:07:18;32.20;36.90
73777;DHT22;62088;50.240;2.696;2022-07-12T12:10:02;32.30;36.60
73777;DHT22;62088;50.240;2.696;2022-07-12T12:12:51;32.40;36.10
73777;DHT22;62088;50.240;2.696;2022-07-12T12:15:21;32.50;35.80
73777;DHT22;62088;50.240;2.696;2022-07-12T12:17:53;32.70;36.20
73777;DHT22;62088;50.240;2.696;2022-07-12T12:20:26;32.80;35.80
73777;DHT22;62088;50.240;2.696;2022-07-12T12:22:59;32.80;35.70
73777;DHT22;62088;50.240;2.696;2022-07-12T12:25:29;33.00;35.90
73777;DHT22;62088;50.240;2.696;2022-07-12T12:27:57;33.10;35.00
73777;DHT22;62088;50.240;2.696;2022-07-12T12:30:52;33.10;34.50
73777;DHT22;62088;50.240;2.696;2022-07-12T12:33:40;33.30;34.10
73777;DHT22;62088;50.240;2.696;2022-07-12T12:38:44;33.50;34.10
73777;DHT22;62088;50.240;2.696;2022-07-12T12:41:11;33.60;34.30
73777;DHT22;62088;50.240;2.696;2022-07-12T12:43:39;33.70;34.60
73777;DHT22;62088;50.240;2.696;2022-07-12T12:46:06;33.80;34.20
73777;DHT22;62088;50.240;2.696;2022-07-12T12:48:34;33.90;34.00
73777;DHT22;62088;50.240;2.696;2022-07-12T12:51:07;33.90;33.80
73777;DHT22;62088;50.240;2.696;2022-07-12T12:53:36;34.10;33.80
73777;DHT22;62088;50.240;2.696;2022-07-12T12:56:06;34.20;33.40
73777;DHT22;62088;50.240;2.696;2022-07-12T12:58:35;34.30;32.90
73777;DHT22;62088;50.240;2.696;2022-07-12T13:01:03;34.30;32.60
73777;DHT22;62088;50.240;2.696;2022-07-12T13:03:31;34.40;32.00
73777;DHT22;62088;50.240;2.696;2022-07-12T13:05:58;34.50;31.70
73777;DHT22;62088;50.240;2.696;2022-07-12T13:08:26;34.50;31.10
73777;DHT22;62088;50.240;2.696;2022-07-12T13:10:54;34.60;30.90
73777;DHT22;62088;50.240;2.696;2022-07-12T13:13:40;34.70;31.30
73777;DHT22;62088;50.240;2.696;2022-07-12T13:16:07;34.80;31.20
73777;DHT22;62088;50.240;2.696;2022-07-12T13:18:34;34.80;31.40
73777;DHT22;62088;50.240;2.696;2022-07-12T13:21:01;34.80;31.40
73777;DHT22;62088;50.240;2.696;2022-07-12T13:23:28;34.80;31.50
73777;DHT22;62088;50.240;2.696;2022-07-12T13:25:55;34.90;31.70
73777;DHT22;62088;50.240;2.696;2022-07-12T13:28:22;35.00;31.40
73777;DHT22;62088;50.240;2.696;2022-07-12T13:30:49;35.10;31.20
73777;DHT22;62088;50.240;2.696;2022-07-12T13:33:16;35.10;31.20
73777;DHT22;62088;50.240;2.696;2022-07-12T13:35:43;35.30;31.50
73777;DHT22;62088;50.240;2.696;2022-07-12T13:38:12;35.30;31.30
73777;DHT22;62088;50.240;2.696;2022-07-12T13:40:39;35.40;31.20
73777;DHT22;62088;50.240;2.696;2022-07-12T13:43:06;35.50;31.10
73777;DHT22;62088;50.240;2.696;2022-07-12T13:45:33;35.60;31.10
73777;DHT22;62088;50.240;2.696;2022-07-12T13:48:00;35.50;30.40
73777;DHT22;62088;50.240;2.696;2022-07-12T13:50:28;35.60;30.40
73777;DHT22;62088;50.240;2.696;2022-07-12T13:52:58;35.60;30.60
73777;DHT22;62088;50.240;2.696;2022-07-12T13:55:27;35.70;30.40
73777;DHT22;62088;50.240;2.696;2022-07-12T13:57:55;35.60;29.90
73777;DHT22;62088;50.240;2.696;2022-07-12T14:00:22;35.60;29.90
73777;DHT22;62088;50.240;2.696;2022-07-12T14:02:49;35.60;30.20
73777;DHT22;62088;50.240;2.696;2022-07-12T14:05:21;35.60;30.20
73777;DHT22;62088;50.240;2.696;2022-07-12T14:07:49;35.60;30.40
73777;DHT22;62088;50.240;2.696;2022-07-12T14:10:17;35.70;30.40
73777;DHT22;62088;50.240;2.696;2022-07-12T14:12:44;35.80;30.20
73777;DHT22;62088;50.240;2.696;2022-07-12T14:15:11;35.80;30.00
73777;DHT22;62088;50.240;2.696;2022-07-12T14:17:43;35.80;29.80
73777;DHT22;62088;50.240;2.696;2022-07-12T14:20:12;35.80;29.30
73777;DHT22;62088;50.240;2.696;2022-07-12T14:22:39;35.80;28.90
73777;DHT22;62088;50.240;2.696;2022-07-12T14:25:08;35.80;28.60
73777;DHT22;62088;50.240;2.696;2022-07-12T14:27:36;35.70;28.60
73777;DHT22;62088;50.240;2.696;2022-07-12T14:30:05;35.60;28.70
73777;DHT22;62088;50.240;2.696;2022-07-12T14:32:36;35.60;29.00
73777;DHT22;62088;50.240;2.696;2022-07-12T14:35:04;35.60;29.40
73777;DHT22;62088;50.240;2.696;2022-07-12T14:37:35;35.60;29.90
73777;DHT22;62088;50.240;2.696;2022-07-12T14:40:04;35.60;29.90
73777;DHT22;62088;50.240;2.696;2022-07-12T14:42:32;35.60;29.90
73777;DHT22;62088;50.240;2.696;2022-07-12T14:44:59;35.60;29.90
73777;DHT22;62088;50.240;2.696;2022-07-12T14:47:26;35.60;29.60
73777;DHT22;62088;50.240;2.696;2022-07-12T14:49:53;35.50;29.30
73777;DHT22;62088;50.240;2.696;2022-07-12T14:52:21;35.50;29.00
73777;DHT22;62088;50.240;2.696;2022-07-12T14:54:48;35.50;29.20
73777;DHT22;62088;50.240;2.696;2022-07-12T14:57:17;35.40;29.30
73777;DHT22;62088;50.240;2.696;2022-07-12T14:59:44;35.40;29.30
73777;DHT22;62088;50.240;2.696;2022-07-12T15:02:11;35.40;29.60
73777;DHT22;62088;50.240;2.696;2022-07-12T15:04:39;35.40;29.90
73777;DHT22;62088;50.240;2.696;2022-07-12T15:07:06;35.50;30.10
73777;DHT22;62088;50.240;2.696;2022-07-12T15:09:34;35.50;30.10
73777;DHT22;62088;50.240;2.696;2022-07-12T15:12:01;35.50;29.80
73777;DHT22;62088;50.240;2.696;2022-07-12T15:14:28;35.40;29.80
73777;DHT22;62088;50.240;2.696;2022-07-12T15:17:01;35.30;29.60
73777;DHT22;62088;50.240;2.696;2022-07-12T15:19:28;35.30;29.80
73777;DHT22;62088;50.240;2.696;2022-07-12T15:21:55;35.30;29.90
73777;DHT22;62088;50.240;2.696;2022-07-12T15:24:23;35.20;30.00
73777;DHT22;62088;50.240;2.696;2022-07-12T15:32:16;34.90;30.10
73777;DHT22;62088;50.240;2.696;2022-07-12T15:34:43;34.90;30.40
73777;DHT22;62088;50.240;2.696;2022-07-12T15:37:10;34.90;30.80
73777;DHT22;62088;50.240;2.696;2022-07-12T15:39:37;34.90;30.70
73777;DHT22;62088;50.240;2.696;2022-07-12T15:42:04;34.90;30.90
73777;DHT22;62088;50.240;2.696;2022-07-12T15:44:31;34.90;31.20
73777;DHT22;62088;50.240;2.696;2022-07-12T15:46:58;34.90;31.10
73777;DHT22;62088;50.240;2.696;2022-07-12T15:49:25;35.00;31.40
73777;DHT22;62088;50.240;2.696;2022-07-12T15:51:52;35.00;31.30
73777;DHT22;62088;50.240;2.696;2022-07-12T15:54:38;35.00;30.90
73777;DHT22;62088;50.240;2.696;2022-07-12T15:57:05;34.90;30.40
73777;DHT22;62088;50.240;2.696;2022-07-12T15:59:34;34.90;30.20
73777;DHT22;62088;50.240;2.696;2022-07-12T16:02:01;34.90;30.00
73777;DHT22;62088;50.240;2.696;2022-07-12T16:04:28;34.90;30.30
73777;DHT22;62088;50.240;2.696;2022-07-12T16:06:57;34.90;30.20